Accueil
METAR-TAF:

METAR-TAF

Aéroports :

Aéroport international de Tianjin Binhai

Tianjin, Chine

latitude: 39-11N, longitude: 117-21E, altitude: 3 m

Observation

Le bulletin a été fait il y a 26 minutes, à 21:00 UTC
Vent 2 kt de est/nord-est
Température 11°C
Humidité 87%
Pression 1012 hPa
Visibilité: 5000 m
brume,

METAR: ZBTJ 202100Z 06001MPS 5000 BR NSC 11/09 Q1012 NOSIG

Heure: 05:26 (21:26 UTC)

Prévision

Le bulletin a été fait il y a 6 heures et 25 minutes, à 15:01 UTC
Prévision valable du 20 à 18 UTC au 21 à 18 UTC
Vent 8 kt de sud-est
Visibilité: 5000 m
brume sèche,

TAF: ZBTJ 201501Z 2018/2118 13004MPS 5000 HZ NSC TX22/2106Z TN09/2021Z

Observations et prévisions météorologiques de plus de 4000 aéroports (messages METAR et TAF).

Les stations disponibles sont représentées par des disques jaunes et rouges sur la carte.

Passer la souris dessus pour voir le nom de la station.

Cliquer dessus pour voir les observations et prévisions météorologiques.

Pour changer de carte: cliquez sur les boutons verts avec une croix noire pour zoomer, sur le bouton vert avec un tiret pour effectuer un zoom arrière, ou sur les flèches vertes pour les cartes adjacentes.


METAR-TAF: